createdAt,value
2023-04-07T00:01:28.889Z,79.12
2023-04-07T00:04:00.506Z,78.51
2023-04-07T00:06:32.169Z,78.48
2023-04-07T00:09:03.056Z,81.76
2023-04-07T00:11:34.099Z,73.69
2023-04-07T00:14:05.852Z,78.11
2023-04-07T00:16:37.510Z,80.16
2023-04-07T00:19:08.091Z,76.28
2023-04-07T00:21:39.479Z,79.89
2023-04-07T00:26:42.567Z,78.83
2023-04-07T00:29:14.030Z,79.54
2023-04-07T00:31:45.373Z,73.32
2023-04-07T00:34:16.543Z,76.83
2023-04-07T00:36:53.402Z,70.51
2023-04-07T00:39:24.792Z,67.81
2023-04-07T00:41:56.455Z,69.11
2023-04-07T00:44:27.109Z,69.10
2023-04-07T00:46:58.132Z,68.64
2023-04-07T00:49:30.277Z,68.09
2023-04-07T00:52:01.955Z,67.87
2023-04-07T00:54:33.722Z,65.19
2023-04-07T00:57:05.196Z,68.21
2023-04-07T00:59:37.842Z,70.42
2023-04-07T01:02:36.716Z,64.74
2023-04-07T01:05:28.497Z,64.60
2023-04-07T01:08:17.168Z,64.18
2023-04-07T01:11:14.695Z,63.46
2023-04-07T01:13:50.611Z,63.52
2023-04-07T01:16:54.679Z,61.24
2023-04-07T01:19:40.425Z,62.12
2023-04-07T01:22:16.855Z,62.60
2023-04-07T01:25:15.840Z,64.18
2023-04-07T01:27:50.048Z,62.86
2023-04-07T01:30:22.088Z,61.27
2023-04-07T01:32:55.175Z,64.68
2023-04-07T01:35:27.054Z,62.54
2023-04-07T01:37:59.261Z,60.95
2023-04-07T01:40:31.744Z,62.28
2023-04-07T01:43:03.119Z,63.85
2023-04-07T01:45:37.084Z,61.04
2023-04-07T01:48:09.820Z,75.00
2023-04-07T01:50:42.402Z,90.57
2023-04-07T01:53:15.750Z,92.65
2023-04-07T01:55:47.345Z,94.15
2023-04-07T01:58:19.003Z,94.42
2023-04-07T02:00:52.853Z,87.50
2023-04-07T02:03:33.536Z,88.13
2023-04-07T02:06:09.736Z,86.35
2023-04-07T02:08:46.143Z,89.61
2023-04-07T02:11:22.561Z,92.29
2023-04-07T02:13:57.920Z,90.80
2023-04-07T02:16:50.687Z,91.58
2023-04-07T02:19:22.543Z,92.29
2023-04-07T02:21:54.393Z,92.10
2023-04-07T02:24:25.831Z,91.96
2023-04-07T02:26:58.961Z,93.12
2023-04-07T02:29:30.259Z,90.90
2023-04-07T02:32:02.185Z,90.44
2023-04-07T02:34:33.560Z,91.07
2023-04-07T02:37:04.972Z,90.48
2023-04-07T02:39:38.361Z,88.08
2023-04-07T02:42:09.567Z,86.13
2023-04-07T02:44:40.886Z,84.65
2023-04-07T02:47:13.030Z,83.66
2023-04-07T02:49:44.280Z,82.22
2023-04-07T02:52:15.990Z,85.17
2023-04-07T02:54:47.845Z,86.72
2023-04-07T02:57:22.910Z,84.45
2023-04-07T02:59:58.470Z,86.62
2023-04-07T03:02:40.098Z,84.57
2023-04-07T03:05:11.831Z,89.14
2023-04-07T03:07:43.278Z,87.93
2023-04-07T03:10:14.739Z,90.86
2023-04-07T03:12:46.158Z,94.86
2023-04-07T03:15:18.880Z,94.05
2023-04-07T03:17:52.191Z,93.83
2023-04-07T03:20:24.454Z,95.24
2023-04-07T03:22:57.167Z,96.66
2023-04-07T03:25:31.824Z,95.18
2023-04-07T03:28:04.397Z,94.58
2023-04-07T03:30:40.051Z,95.44
2023-04-07T03:33:11.380Z,91.33
2023-04-07T03:35:43.335Z,92.32
2023-04-07T03:38:15.864Z,93.14
2023-04-07T03:40:47.868Z,95.21
2023-04-07T03:43:19.101Z,98.42
2023-04-07T03:45:50.449Z,98.37
2023-04-07T03:48:24.253Z,97.66
2023-04-07T03:51:07.130Z,97.04
2023-04-07T03:53:38.944Z,97.61
2023-04-07T03:56:29.121Z,98.20
2023-04-07T03:59:02.178Z,97.12
2023-04-07T04:01:38.070Z,97.70
2023-04-07T04:04:18.703Z,99.30
2023-04-07T04:06:49.882Z,100.00
2023-04-07T04:09:49.907Z,100.00
2023-04-07T04:12:22.607Z,99.81
2023-04-07T04:15:04.461Z,99.45
2023-04-07T04:17:36.292Z,100.00
2023-04-07T04:20:13.414Z,100.00
2023-04-07T04:22:47.069Z,100.00
2023-04-07T04:25:19.686Z,100.00
2023-04-07T04:27:56.126Z,100.00
2023-04-07T04:30:30.242Z,100.00
2023-04-07T04:33:05.616Z,100.00
2023-04-07T04:36:09.209Z,100.00
2023-04-07T04:38:40.847Z,100.00
2023-04-07T04:41:23.831Z,100.00
2023-04-07T04:43:55.535Z,100.00
2023-04-07T04:46:29.458Z,100.00
2023-04-07T04:49:02.518Z,99.40
2023-04-07T04:51:35.380Z,100.00
2023-04-07T04:54:15.375Z,100.00
2023-04-07T04:56:48.091Z,100.00
2023-04-07T04:59:18.984Z,100.00
2023-04-07T05:02:16.228Z,100.00
2023-04-07T05:04:48.045Z,100.00
2023-04-07T05:07:27.593Z,100.00
2023-04-07T05:09:59.895Z,100.00
2023-04-07T05:12:32.812Z,100.00
2023-04-07T05:15:05.729Z,100.00
2023-04-07T05:17:36.621Z,100.00
2023-04-07T05:20:11.381Z,100.00
2023-04-07T05:22:45.029Z,100.00
2023-04-07T05:25:18.072Z,100.00
2023-04-07T05:27:51.429Z,100.00
2023-04-07T05:30:22.853Z,100.00
2023-04-07T05:32:54.608Z,100.00
2023-04-07T05:35:35.788Z,100.00
2023-04-07T05:38:07.413Z,100.00
2023-04-07T05:40:39.145Z,100.00
2023-04-07T05:43:13.423Z,100.00
2023-04-07T05:45:44.759Z,100.00
2023-04-07T05:48:16.350Z,100.00
2023-04-07T05:50:50.052Z,100.00
2023-04-07T05:53:24.091Z,100.00
2023-04-07T05:55:55.452Z,100.00
2023-04-07T05:58:43.597Z,100.00
2023-04-07T06:01:17.161Z,100.00
2023-04-07T06:03:48.677Z,100.00
2023-04-07T06:06:30.278Z,100.00
2023-04-07T06:09:02.365Z,100.00
2023-04-07T06:11:33.610Z,100.00
2023-04-07T06:14:04.596Z,100.00
2023-04-07T06:16:36.124Z,100.00
2023-04-07T06:19:08.602Z,100.00
2023-04-07T06:21:39.779Z,100.00
2023-04-07T06:24:11.393Z,100.00
2023-04-07T06:26:43.153Z,100.00
2023-04-07T06:29:14.652Z,100.00
2023-04-07T06:31:47.111Z,100.00
2023-04-07T06:34:18.816Z,100.00
2023-04-07T06:36:50.520Z,100.00
2023-04-07T06:39:21.971Z,100.00
2023-04-07T06:41:53.452Z,100.00
2023-04-07T06:44:25.372Z,100.00
2023-04-07T06:46:57.062Z,100.00
2023-04-07T06:49:28.735Z,100.00
2023-04-07T06:51:59.931Z,100.00
2023-04-07T06:54:31.048Z,100.00
2023-04-07T06:57:03.248Z,100.00
2023-04-07T06:59:34.280Z,100.00
2023-04-07T07:02:05.751Z,100.00
2023-04-07T07:04:40.304Z,100.00
2023-04-07T07:07:11.828Z,100.00
2023-04-07T07:09:43.016Z,100.00
2023-04-07T07:12:16.879Z,100.00
2023-04-07T07:14:48.192Z,100.00
2023-04-07T07:17:19.716Z,100.00
2023-04-07T07:19:51.102Z,100.00
2023-04-07T07:22:22.300Z,100.00
2023-04-07T07:24:53.765Z,100.00
2023-04-07T07:27:25.096Z,100.00
2023-04-07T07:29:56.397Z,100.00
2023-04-07T07:32:27.470Z,100.00
2023-04-07T07:34:59.078Z,100.00
2023-04-07T07:37:33.438Z,100.00
2023-04-07T07:40:04.803Z,100.00
2023-04-07T07:42:36.127Z,100.00
2023-04-07T07:45:08.566Z,100.00
2023-04-07T07:47:40.089Z,100.00
2023-04-07T07:50:11.792Z,100.00
2023-04-07T07:52:43.164Z,100.00
2023-04-07T07:55:14.066Z,100.00
2023-04-07T07:57:45.122Z,100.00
2023-04-07T08:00:17.077Z,100.00
2023-04-07T08:02:48.516Z,100.00
2023-04-07T08:05:19.698Z,100.00
2023-04-07T08:07:52.791Z,100.00
2023-04-07T08:10:26.594Z,100.00
2023-04-07T08:12:58.205Z,100.00
2023-04-07T08:15:29.507Z,100.00
2023-04-07T08:18:01.561Z,100.00
2023-04-07T08:20:34.440Z,100.00
2023-04-07T08:23:06.547Z,100.00
2023-04-07T08:25:38.187Z,100.00
2023-04-07T08:28:09.216Z,100.00
2023-04-07T08:30:40.322Z,100.00
2023-04-07T08:33:11.263Z,100.00
2023-04-07T08:35:42.484Z,100.00
2023-04-07T08:38:13.965Z,100.00
2023-04-07T08:40:45.187Z,100.00
2023-04-07T08:43:17.662Z,100.00
2023-04-07T08:45:51.169Z,100.00
2023-04-07T08:48:30.168Z,100.00
2023-04-07T08:51:06.964Z,100.00
2023-04-07T08:53:51.660Z,100.00
2023-04-07T08:56:23.526Z,100.00
2023-04-07T08:58:56.001Z,100.00
2023-04-07T09:01:28.238Z,100.00
2023-04-07T09:04:00.337Z,100.00
2023-04-07T09:06:33.931Z,100.00
2023-04-07T09:09:07.711Z,100.00
2023-04-07T09:11:41.548Z,100.00
2023-04-07T09:14:12.796Z,100.00
2023-04-07T09:16:44.530Z,100.00
2023-04-07T09:19:15.100Z,100.00
2023-04-07T09:21:52.926Z,100.00
2023-04-07T09:24:26.286Z,100.00
2023-04-07T09:27:18.491Z,100.00
2023-04-07T09:29:50.495Z,100.00
2023-04-07T09:32:38.038Z,100.00
2023-04-07T09:35:09.721Z,100.00
2023-04-07T09:37:41.007Z,100.00
2023-04-07T09:40:13.590Z,100.00
2023-04-07T09:42:49.655Z,100.00
2023-04-07T09:45:35.115Z,100.00
2023-04-07T09:48:12.385Z,100.00
2023-04-07T09:50:47.250Z,100.00
2023-04-07T09:53:24.575Z,100.00
2023-04-07T09:55:55.911Z,100.00
2023-04-07T09:58:27.285Z,100.00
2023-04-07T10:00:58.575Z,100.00
2023-04-07T10:03:30.091Z,100.00
2023-04-07T10:06:03.557Z,100.00
2023-04-07T10:08:37.851Z,100.00
2023-04-07T10:11:09.525Z,100.00
2023-04-07T10:13:42.942Z,100.00
2023-04-07T10:16:16.148Z,100.00
2023-04-07T10:18:48.687Z,100.00
2023-04-07T10:21:20.201Z,100.00
2023-04-07T10:24:10.017Z,100.00
2023-04-07T10:26:41.872Z,100.00
2023-04-07T10:29:14.045Z,100.00
2023-04-07T10:31:45.249Z,100.00
2023-04-07T10:34:16.315Z,100.00
2023-04-07T10:37:15.461Z,100.00
2023-04-07T10:39:46.707Z,100.00
2023-04-07T10:42:47.275Z,100.00
2023-04-07T10:45:18.336Z,100.00
2023-04-07T10:48:05.155Z,100.00
2023-04-07T10:50:38.030Z,100.00
2023-04-07T10:53:15.592Z,100.00
2023-04-07T10:55:49.963Z,100.00
2023-04-07T10:58:25.298Z,100.00
2023-04-07T11:01:09.509Z,100.00
2023-04-07T11:03:43.653Z,100.00
2023-04-07T11:06:18.162Z,100.00
2023-04-07T11:08:50.347Z,100.00
2023-04-07T11:11:42.154Z,100.00
2023-04-07T11:14:13.278Z,100.00
2023-04-07T11:16:46.920Z,100.00
2023-04-07T11:19:17.847Z,100.00
2023-04-07T11:21:49.395Z,100.00
2023-04-07T11:24:42.071Z,100.00
2023-04-07T11:27:17.580Z,100.00
2023-04-07T11:29:48.892Z,100.00
2023-04-07T11:32:31.443Z,100.00
2023-04-07T11:35:03.394Z,100.00
2023-04-07T11:37:34.642Z,100.00
2023-04-07T11:40:06.275Z,100.00
2023-04-07T11:42:38.699Z,100.00
2023-04-07T11:45:22.075Z,100.00
2023-04-07T11:47:53.612Z,100.00
2023-04-07T11:50:45.205Z,100.00
2023-04-07T11:53:17.447Z,100.00
2023-04-07T11:55:48.611Z,100.00
2023-04-07T11:58:19.906Z,100.00
2023-04-07T12:00:57.495Z,100.00
2023-04-07T12:03:28.937Z,100.00
2023-04-07T12:06:00.462Z,100.00
2023-04-07T12:08:42.902Z,100.00
2023-04-07T12:11:14.882Z,100.00
2023-04-07T12:13:45.513Z,100.00
2023-04-07T12:16:16.625Z,100.00
2023-04-07T12:18:48.246Z,100.00
2023-04-07T12:21:22.526Z,100.00
2023-04-07T12:23:53.702Z,100.00
2023-04-07T12:26:26.880Z,100.00
2023-04-07T12:29:00.367Z,100.00
2023-04-07T12:31:31.866Z,100.00
2023-04-07T12:34:03.571Z,100.00
2023-04-07T12:36:34.893Z,100.00
2023-04-07T12:39:06.812Z,100.00
2023-04-07T12:41:40.164Z,100.00
2023-04-07T12:44:11.564Z,100.00
2023-04-07T12:46:42.691Z,100.00
2023-04-07T12:49:14.141Z,100.00
2023-04-07T12:51:47.494Z,100.00
2023-04-07T12:54:20.078Z,100.00
2023-04-07T12:56:52.095Z,100.00
2023-04-07T12:59:23.561Z,100.00
2023-04-07T13:01:55.911Z,100.00
2023-04-07T13:04:28.502Z,100.00
2023-04-07T13:06:59.986Z,100.00
2023-04-07T13:09:30.757Z,100.00
2023-04-07T13:12:01.896Z,100.00
2023-04-07T13:14:33.193Z,100.00
2023-04-07T13:17:04.486Z,100.00
2023-04-07T13:19:37.603Z,100.00
2023-04-07T13:22:09.625Z,100.00
2023-04-07T13:24:41.249Z,100.00
2023-04-07T13:27:12.542Z,100.00
2023-04-07T13:29:43.540Z,100.00
2023-04-07T13:32:16.433Z,100.00
2023-04-07T13:34:48.190Z,100.00
2023-04-07T13:37:21.117Z,100.00
2023-04-07T13:39:52.896Z,100.00
2023-04-07T13:42:24.196Z,100.00
2023-04-07T13:44:55.948Z,100.00
2023-04-07T13:47:28.209Z,100.00
2023-04-07T13:49:59.357Z,100.00
2023-04-07T13:52:31.746Z,100.00
2023-04-07T13:55:05.506Z,100.00
2023-04-07T13:57:37.425Z,100.00
2023-04-07T14:00:09.604Z,100.00
2023-04-07T14:02:41.496Z,100.00
2023-04-07T14:05:13.142Z,100.00
2023-04-07T14:07:44.466Z,100.00
2023-04-07T14:10:15.861Z,100.00
2023-04-07T14:12:47.260Z,100.00
2023-04-07T14:15:18.759Z,100.00
2023-04-07T14:17:49.988Z,100.00
2023-04-07T14:20:21.087Z,100.00
2023-04-07T14:22:52.611Z,100.00
2023-04-07T14:25:23.982Z,100.00
2023-04-07T14:27:55.591Z,100.00
2023-04-07T14:30:26.920Z,100.00
2023-04-07T14:32:58.459Z,100.00
2023-04-07T14:35:29.874Z,100.00
2023-04-07T14:38:01.950Z,100.00
2023-04-07T14:40:33.302Z,100.00
2023-04-07T14:43:07.308Z,100.00
2023-04-07T14:45:40.164Z,100.00
2023-04-07T14:48:11.498Z,100.00
2023-04-07T14:50:42.866Z,100.00
2023-04-07T14:53:14.370Z,100.00
2023-04-07T14:55:46.237Z,100.00
2023-04-07T14:58:17.281Z,100.00
2023-04-07T15:00:48.574Z,100.00
2023-04-07T15:03:20.002Z,100.00
2023-04-07T15:05:51.743Z,100.00
2023-04-07T15:08:23.140Z,100.00
2023-04-07T15:10:54.679Z,100.00
2023-04-07T15:13:25.977Z,100.00
2023-04-07T15:16:07.578Z,100.00
2023-04-07T15:18:39.516Z,100.00
2023-04-07T15:21:29.366Z,100.00
2023-04-07T15:24:07.440Z,100.00
2023-04-07T15:26:38.644Z,100.00
2023-04-07T15:29:10.500Z,100.00
2023-04-07T15:31:41.768Z,100.00
2023-04-07T15:34:14.330Z,100.00
2023-04-07T15:36:45.762Z,100.00
2023-04-07T15:39:16.964Z,100.00
2023-04-07T15:41:48.280Z,100.00
2023-04-07T15:44:20.787Z,100.00
2023-04-07T15:46:52.245Z,100.00
2023-04-07T15:49:26.056Z,100.00
2023-04-07T15:51:58.206Z,100.00
2023-04-07T15:54:29.835Z,100.00
2023-04-07T15:57:01.137Z,100.00
2023-04-07T15:59:32.709Z,100.00
2023-04-07T16:02:05.522Z,100.00
2023-04-07T16:04:36.608Z,100.00
2023-04-07T16:07:09.986Z,100.00
2023-04-07T16:09:44.512Z,100.00
2023-04-07T16:12:16.062Z,100.00
2023-04-07T16:14:47.699Z,100.00
2023-04-07T16:17:18.905Z,100.00
2023-04-07T16:19:50.406Z,100.00
2023-04-07T16:22:22.402Z,100.00
2023-04-07T16:24:53.658Z,100.00
2023-04-07T16:27:24.617Z,100.00
2023-04-07T16:29:55.850Z,100.00
2023-04-07T16:32:27.263Z,100.00
2023-04-07T16:34:58.452Z,100.00
2023-04-07T16:37:29.720Z,100.00
2023-04-07T16:40:03.457Z,100.00
2023-04-07T16:42:35.519Z,100.00
2023-04-07T16:45:07.628Z,100.00
2023-04-07T16:47:40.439Z,100.00
2023-04-07T16:50:12.126Z,100.00
2023-04-07T16:52:43.348Z,100.00
2023-04-07T16:55:14.764Z,100.00
2023-04-07T16:57:45.860Z,100.00
2023-04-07T17:00:17.364Z,100.00
2023-04-07T17:02:49.109Z,100.00
2023-04-07T17:05:20.340Z,100.00
2023-04-07T17:07:51.682Z,100.00
2023-04-07T17:10:23.064Z,100.00
2023-04-07T17:12:57.677Z,100.00
2023-04-07T17:15:29.206Z,100.00
2023-04-07T17:18:01.296Z,100.00
2023-04-07T17:20:31.967Z,100.00
2023-04-07T17:23:03.266Z,100.00
2023-04-07T17:25:34.412Z,100.00
2023-04-07T17:28:05.695Z,100.00
2023-04-07T17:30:38.796Z,100.00
2023-04-07T17:33:10.401Z,100.00
2023-04-07T17:35:41.799Z,100.00
2023-04-07T17:38:13.375Z,100.00
2023-04-07T17:40:44.776Z,100.00
2023-04-07T17:43:17.123Z,100.00
2023-04-07T17:45:47.621Z,100.00
2023-04-07T17:48:18.924Z,100.00
2023-04-07T17:50:53.032Z,100.00
2023-04-07T17:53:24.282Z,100.00
2023-04-07T17:55:55.783Z,100.00
2023-04-07T17:58:27.945Z,100.00
2023-04-07T18:00:59.386Z,100.00
2023-04-07T18:03:30.556Z,100.00
2023-04-07T18:06:02.115Z,100.00
2023-04-07T18:08:33.700Z,100.00
2023-04-07T18:11:06.980Z,100.00
2023-04-07T18:13:38.483Z,100.00
2023-04-07T18:16:12.974Z,100.00
2023-04-07T18:18:45.031Z,100.00
2023-04-07T18:21:15.753Z,100.00
2023-04-07T18:23:47.216Z,100.00
2023-04-07T18:26:18.271Z,100.00
2023-04-07T18:28:49.905Z,100.00
2023-04-07T18:31:21.763Z,100.00
2023-04-07T18:33:53.413Z,100.00
2023-04-07T18:36:26.958Z,100.00
2023-04-07T18:38:59.075Z,100.00
2023-04-07T18:41:30.514Z,100.00
2023-04-07T18:44:02.005Z,100.00
2023-04-07T18:46:33.352Z,100.00
2023-04-07T18:49:05.721Z,100.00
2023-04-07T18:51:36.785Z,100.00
2023-04-07T18:54:08.283Z,100.00
2023-04-07T18:56:39.373Z,100.00
2023-04-07T18:59:11.077Z,100.00
2023-04-07T19:01:44.128Z,100.00
2023-04-07T19:04:17.086Z,100.00
2023-04-07T19:06:48.844Z,100.00
2023-04-07T19:09:19.704Z,100.00
2023-04-07T19:11:51.142Z,100.00
2023-04-07T19:14:22.690Z,100.00
2023-04-07T19:16:54.820Z,100.00
2023-04-07T19:19:26.414Z,100.00
2023-04-07T19:21:58.037Z,100.00
2023-04-07T19:24:29.566Z,100.00
2023-04-07T19:27:01.061Z,100.00
2023-04-07T19:29:32.762Z,100.00
2023-04-07T19:32:04.873Z,100.00
2023-04-07T19:34:36.130Z,100.00
2023-04-07T19:37:07.299Z,100.00
2023-04-07T19:39:38.485Z,100.00
2023-04-07T19:42:10.033Z,100.00
2023-04-07T19:44:41.436Z,100.00
2023-04-07T19:47:13.747Z,100.00
2023-04-07T19:49:45.013Z,100.00
2023-04-07T19:52:16.502Z,100.00
2023-04-07T19:54:48.314Z,100.00
2023-04-07T19:57:20.162Z,100.00
2023-04-07T19:59:52.248Z,100.00
2023-04-07T20:02:23.267Z,100.00
2023-04-07T20:04:55.871Z,100.00
2023-04-07T20:07:27.756Z,100.00
2023-04-07T20:09:59.393Z,100.00
2023-04-07T20:12:30.565Z,100.00
2023-04-07T20:15:02.165Z,100.00
2023-04-07T20:17:34.148Z,100.00
2023-04-07T20:20:06.706Z,100.00
2023-04-07T20:22:38.109Z,100.00
2023-04-07T20:25:09.558Z,100.00
2023-04-07T20:27:42.482Z,100.00
2023-04-07T20:30:14.094Z,100.00
2023-04-07T20:32:47.483Z,100.00
2023-04-07T20:35:18.882Z,100.00
2023-04-07T20:37:50.135Z,100.00
2023-04-07T20:40:21.242Z,100.00
2023-04-07T20:42:52.257Z,100.00
2023-04-07T20:45:24.547Z,100.00
2023-04-07T20:47:55.886Z,100.00
2023-04-07T20:50:27.404Z,100.00
2023-04-07T20:52:58.414Z,100.00
2023-04-07T20:55:30.242Z,100.00
2023-04-07T20:58:01.585Z,100.00
2023-04-07T21:00:34.073Z,100.00
2023-04-07T21:03:05.782Z,100.00
2023-04-07T21:05:37.226Z,100.00
2023-04-07T21:08:08.746Z,100.00
2023-04-07T21:10:40.141Z,100.00
2023-04-07T21:13:11.340Z,100.00
2023-04-07T21:15:45.292Z,100.00
2023-04-07T21:18:18.041Z,100.00
2023-04-07T21:20:50.480Z,100.00
2023-04-07T21:23:22.016Z,100.00
2023-04-07T21:25:53.343Z,100.00
2023-04-07T21:28:24.921Z,100.00
2023-04-07T21:30:58.079Z,100.00
2023-04-07T21:33:29.136Z,100.00
2023-04-07T21:36:02.886Z,100.00
2023-04-07T21:38:34.166Z,100.00
2023-04-07T21:41:05.426Z,100.00
2023-04-07T21:43:36.971Z,100.00
2023-04-07T21:46:08.132Z,100.00
2023-04-07T21:48:39.351Z,100.00
2023-04-07T21:51:11.008Z,100.00
2023-04-07T21:53:42.935Z,100.00
2023-04-07T21:56:15.010Z,100.00
2023-04-07T21:58:48.057Z,100.00
2023-04-07T22:01:20.385Z,100.00
2023-04-07T22:03:52.229Z,100.00
2023-04-07T22:06:23.489Z,100.00
2023-04-07T22:09:01.267Z,100.00
2023-04-07T22:11:33.408Z,96.65
2023-04-07T22:14:04.624Z,96.23
2023-04-07T22:16:38.835Z,94.98
2023-04-07T22:19:09.930Z,93.89
2023-04-07T22:21:41.386Z,92.26
2023-04-07T22:24:12.826Z,93.92
2023-04-07T22:26:43.709Z,91.95
2023-04-07T22:29:14.835Z,91.37
2023-04-07T22:31:46.314Z,92.20
2023-04-07T22:34:17.881Z,86.74
2023-04-07T22:36:49.384Z,92.90
2023-04-07T22:39:20.822Z,89.59
2023-04-07T22:41:51.943Z,91.34
2023-04-07T22:44:23.109Z,85.84
2023-04-07T22:46:54.354Z,86.81
2023-04-07T22:49:25.722Z,84.86
2023-04-07T22:51:58.689Z,85.43
2023-04-07T22:54:29.840Z,79.65
2023-04-07T22:57:01.302Z,80.49
2023-04-07T22:59:33.206Z,82.82
2023-04-07T23:02:04.832Z,79.88
2023-04-07T23:04:35.720Z,81.31
2023-04-07T23:07:07.366Z,82.18
2023-04-07T23:09:38.217Z,76.55
2023-04-07T23:12:09.478Z,78.11
2023-04-07T23:14:40.123Z,75.91
2023-04-07T23:17:11.099Z,77.54
2023-04-07T23:19:42.423Z,75.74
2023-04-07T23:22:14.044Z,77.92
2023-04-07T23:24:45.155Z,79.18
2023-04-07T23:27:16.037Z,78.53
2023-04-07T23:29:47.535Z,74.25
2023-04-07T23:32:18.899Z,75.57
2023-04-07T23:34:49.734Z,75.66
2023-04-07T23:37:21.138Z,75.64
2023-04-07T23:39:53.231Z,71.75
2023-04-07T23:42:24.521Z,72.60
2023-04-07T23:44:55.295Z,73.85
2023-04-07T23:47:26.893Z,75.02
2023-04-07T23:49:58.194Z,76.89
2023-04-07T23:52:29.450Z,75.38
2023-04-07T23:55:00.584Z,72.76
2023-04-07T23:57:33.346Z,72.29
